Terminal Aerodrome Forecast
Issued by NWS

Home | Current Version | Previous Version | Text Only | Print | Product List | Glossary On
Versions: 1 2 3 4 5 6 7 8 9 10 11 12 13 14
000
FTUS42 TJSJ 202330
TAFJBQ
TAF
TJBQ 202330Z 2100/2124 10010KT P6SM SCT009 SCT016 BKN070
     FM210300 10007KT P6SM SKC
     FM211300 08015KT P6SM FEW030 FEW050
     FM211800 09019G23KT P6SM VCTS SCT018 SCT040CB BKN070
      AMD NOT SKED 2102/2111=

USA.gov is the U.S. government's official web portal to all federal, state and local government web resources and services.